Time;durP1;ratioP1;P1;durP2;ratioP2;P2;SDS_P1;SDS_P2;PMS_P1;PMS_P2;Temp;Humidity;BMP_temperature;BMP_pressure;BME280_temperature;BME280_humidity;BME280_pressure;Samples;Min_cycle;Max_cycle;Signal;HPM_P1;HPM_P2
2021/10/25 00:01:14;;;;;;;8.52;6.30;;;10.00;96.40;;;;;;5072778;28;20581;-66
2021/10/25 00:03:41;;;;;;;11.15;7.50;;;10.00;96.40;;;;;;5071891;28;20242;-66
2021/10/25 00:06:10;;;;;;;9.07;6.60;;;10.00;96.50;;;;;;5072652;28;20280;-66
2021/10/25 00:08:37;;;;;;;9.43;5.93;;;9.90;96.90;;;;;;5071870;28;20228;-67
2021/10/25 00:11:03;;;;;;;7.15;6.18;;;10.00;96.40;;;;;;5072538;28;20234;-65
2021/10/25 00:13:32;;;;;;;9.05;6.80;;;10.00;96.40;;;;;;5071902;28;20676;-66
2021/10/25 00:15:59;;;;;;;9.05;6.28;;;10.00;96.30;;;;;;5072470;28;20234;-65
2021/10/25 00:18:28;;;;;;;6.63;6.00;;;10.00;96.30;;;;;;5069670;28;20231;-65
2021/10/25 00:20:55;;;;;;;8.18;6.00;;;10.00;96.30;;;;;;5071889;28;20234;-65
2021/10/25 00:23:24;;;;;;;6.80;5.70;;;10.00;96.30;;;;;;5071758;28;20225;-66
2021/10/25 00:25:51;;;;;;;8.25;6.30;;;10.00;96.30;;;;;;5063557;28;20234;-66
2021/10/25 00:28:18;;;;;;;7.75;6.00;;;10.00;96.20;;;;;;5072251;28;20306;-66
2021/10/25 00:30:45;;;;;;;10.02;5.80;;;10.00;96.10;;;;;;5062067;28;20570;-66
2021/10/25 00:33:12;;;;;;;9.07;6.30;;;9.90;96.70;;;;;;5062516;28;20218;-66
2021/10/25 00:35:39;;;;;;;7.63;6.05;;;9.90;96.60;;;;;;5071809;28;20698;-66
2021/10/25 00:38:06;;;;;;;9.00;5.22;;;9.90;96.60;;;;;;5072116;28;20223;-66
2021/10/25 00:40:34;;;;;;;12.25;6.03;;;9.90;96.60;;;;;;5071463;28;20223;-66
2021/10/25 00:43:01;;;;;;;8.50;6.03;;;9.90;96.50;;;;;;5071967;28;20218;-65
2021/10/25 00:45:28;;;;;;;8.90;6.00;;;9.90;96.50;;;;;;5071943;28;20217;-66
2021/10/25 00:47:57;;;;;;;11.02;5.88;;;9.90;96.60;;;;;;5071375;28;20236;-65
2021/10/25 00:50:24;;;;;;;10.88;6.00;;;9.80;96.50;;;;;;5063960;28;20260;-66
2021/10/25 00:52:53;;;;;;;7.85;5.63;;;9.80;96.50;;;;;;5070311;28;20263;-66
2021/10/25 00:55:21;;;;;;;8.23;5.47;;;9.80;96.50;;;;;;5071973;28;20283;-65
2021/10/25 00:57:53;;;;;;;12.60;6.85;;;9.80;96.40;;;;;;5069688;28;20262;-65
2021/10/25 01:00:20;;;;;;;6.57;5.10;;;9.80;96.40;;;;;;5071827;28;20226;-67
2021/10/25 01:02:47;;;;;;;6.75;6.05;;;9.80;96.40;;;;;;5071190;28;20253;-66
2021/10/25 01:05:14;;;;;;;5.88;5.10;;;9.80;96.40;;;;;;5072056;28;20226;-67
2021/10/25 01:07:42;;;;;;;7.18;5.50;;;9.80;96.40;;;;;;5070800;28;20230;-64
2021/10/25 01:10:10;;;;;;;5.20;4.65;;;9.80;96.40;;;;;;5071514;28;20588;-66
2021/10/25 01:12:37;;;;;;;7.55;5.78;;;9.80;96.40;;;;;;5071429;28;20231;-66
2021/10/25 01:15:07;;;;;;;9.43;6.38;;;9.80;96.50;;;;;;5071690;28;20246;-65
2021/10/25 01:17:34;;;;;;;9.02;6.78;;;9.70;96.50;;;;;;5068940;28;20236;-66
2021/10/25 01:20:02;;;;;;;7.15;5.65;;;9.70;96.50;;;;;;5071358;28;20233;-65
2021/10/25 01:22:29;;;;;;;8.70;5.80;;;9.70;96.50;;;;;;5071798;28;20296;-66
2021/10/25 01:24:57;;;;;;;8.85;6.60;;;9.70;96.60;;;;;;5071282;28;21162;-66
2021/10/25 01:27:24;;;;;;;7.35;6.07;;;9.60;96.50;;;;;;5075564;28;20238;-66
2021/10/25 01:29:51;;;;;;;7.55;5.60;;;9.60;96.60;;;;;;5074834;28;20233;-65
2021/10/25 01:32:18;;;;;;;5.82;5.30;;;9.50;96.60;;;;;;5075358;28;20620;-66
2021/10/25 01:34:48;;;;;;;7.30;6.00;;;9.50;96.70;;;;;;5074624;28;20221;-65
2021/10/25 01:37:16;;;;;;;7.75;5.10;;;9.50;96.70;;;;;;5075327;28;20238;-66
2021/10/25 01:39:44;;;;;;;8.68;5.95;;;9.50;96.80;;;;;;5074644;28;20578;-65
2021/10/25 01:42:11;;;;;;;6.30;4.90;;;9.50;96.70;;;;;;5074958;28;20227;-66
2021/10/25 01:44:39;;;;;;;7.97;5.85;;;9.50;96.60;;;;;;5083259;28;20569;-66
2021/10/25 01:47:06;;;;;;;6.35;4.90;;;9.50;96.50;;;;;;5062784;28;20273;-65
2021/10/25 01:49:33;;;;;;;5.97;5.22;;;9.40;96.50;;;;;;5073383;28;20229;-65
2021/10/25 01:52:00;;;;;;;6.30;5.32;;;9.40;96.40;;;;;;5074470;28;20234;-66
2021/10/25 01:54:28;;;;;;;8.02;5.22;;;9.40;96.40;;;;;;5075818;28;20544;-65
2021/10/25 01:56:55;;;;;;;8.20;5.78;;;9.50;96.50;;;;;;5087899;28;20240;-66
2021/10/25 01:59:22;;;;;;;10.57;6.60;;;9.40;96.30;;;;;;5093012;28;20708;-66
2021/10/25 02:01:49;;;;;;;5.43;4.55;;;9.40;96.40;;;;;;5089974;28;20227;-65
2021/10/25 02:04:17;;;;;;;6.50;5.80;;;9.40;96.30;;;;;;5070003;28;20279;-65
2021/10/25 02:06:43;;;;;;;9.80;6.55;;;9.30;96.30;;;;;;5070848;28;20232;-65
2021/10/25 02:09:10;;;;;;;8.00;5.35;;;9.40;96.30;;;;;;5067553;28;20236;-65
2021/10/25 02:11:39;;;;;;;8.73;5.40;;;9.40;96.30;;;;;;5074690;28;20222;-65
2021/10/25 02:14:06;;;;;;;7.80;5.95;;;9.30;96.20;;;;;;5070782;28;20226;-65
2021/10/25 02:16:33;;;;;;;9.63;5.15;;;9.40;96.30;;;;;;5066946;28;20240;-65
2021/10/25 02:19:00;;;;;;;8.27;5.60;;;9.40;96.20;;;;;;5065581;28;20242;-65
2021/10/25 02:21:27;;;;;;;8.20;5.55;;;9.30;96.10;;;;;;5074442;28;20225;-66
2021/10/25 02:23:54;;;;;;;5.85;5.00;;;9.30;96.10;;;;;;5060715;28;20229;-66
2021/10/25 02:26:21;;;;;;;7.32;5.40;;;9.30;96.10;;;;;;5074051;28;20232;-65
2021/10/25 02:28:49;;;;;;;6.22;4.63;;;9.20;96.10;;;;;;5067495;28;20241;-66
2021/10/25 02:31:16;;;;;;;7.55;5.22;;;9.20;96.10;;;;;;5067364;28;20247;-65
2021/10/25 02:33:44;;;;;;;8.95;5.30;;;9.20;96.10;;;;;;5060456;28;20244;-65
2021/10/25 02:36:11;;;;;;;5.20;4.70;;;9.20;96.10;;;;;;5087548;28;20217;-65
2021/10/25 02:38:39;;;;;;;5.53;5.05;;;9.20;96.10;;;;;;5086992;28;20224;-66
2021/10/25 02:41:06;;;;;;;8.38;5.07;;;9.10;96.20;;;;;;5086995;28;20232;-66
2021/10/25 02:43:34;;;;;;;7.05;5.38;;;9.10;96.20;;;;;;5083164;28;20556;-65
2021/10/25 02:46:02;;;;;;;7.13;5.90;;;9.10;96.20;;;;;;5087140;28;20224;-66
2021/10/25 02:48:30;;;;;;;9.40;7.25;;;9.10;96.20;;;;;;5081335;28;20227;-65
2021/10/25 02:50:57;;;;;;;11.68;8.13;;;9.10;96.20;;;;;;5085041;28;20211;-65
2021/10/25 02:53:25;;;;;;;8.00;6.68;;;9.10;96.10;;;;;;5087405;28;20233;-65
2021/10/25 02:55:52;;;;;;;7.78;6.93;;;9.10;96.20;;;;;;5086724;28;20240;-66
2021/10/25 02:58:19;;;;;;;6.88;4.63;;;9.10;96.10;;;;;;5084592;28;20215;-65
2021/10/25 03:00:46;;;;;;;6.72;5.25;;;9.10;96.10;;;;;;5080548;28;20258;-66
2021/10/25 03:03:14;;;;;;;5.35;4.80;;;9.10;96.10;;;;;;5079784;28;20228;-66
2021/10/25 03:05:41;;;;;;;8.20;6.10;;;9.10;96.00;;;;;;5080413;28;20560;-66
2021/10/25 03:08:08;;;;;;;7.22;5.45;;;9.00;96.10;;;;;;5085693;28;20573;-66
2021/10/25 03:10:35;;;;;;;10.25;5.40;;;9.00;96.00;;;;;;5072376;28;20231;-66
2021/10/25 03:13:03;;;;;;;8.45;6.22;;;9.00;96.20;;;;;;5071734;28;20223;-65
2021/10/25 03:15:30;;;;;;;8.68;5.70;;;9.00;96.10;;;;;;5072000;28;20401;-66
2021/10/25 03:17:57;;;;;;;5.72;5.13;;;9.00;96.20;;;;;;5071559;28;20235;-65
2021/10/25 03:20:27;;;;;;;8.60;5.82;;;8.90;96.20;;;;;;5072578;28;20232;-66
2021/10/25 03:22:54;;;;;;;5.97;5.28;;;8.90;96.20;;;;;;5071847;28;20739;-66
2021/10/25 03:25:21;;;;;;;6.35;4.90;;;8.90;96.10;;;;;;5072649;28;20227;-66
2021/10/25 03:27:49;;;;;;;10.40;5.68;;;8.90;96.30;;;;;;5073087;28;20689;-66
2021/10/25 03:30:18;;;;;;;7.85;5.97;;;8.90;96.30;;;;;;5072668;28;20224;-65
2021/10/25 03:32:45;;;;;;;8.02;5.60;;;8.80;96.30;;;;;;5073186;28;20532;-65
2021/10/25 03:35:12;;;;;;;9.13;5.80;;;8.80;96.30;;;;;;5072576;28;20244;-66
2021/10/25 03:37:41;;;;;;;5.68;4.85;;;8.80;96.30;;;;;;5073142;28;20568;-66
2021/10/25 03:40:09;;;;;;;8.35;5.60;;;8.80;96.30;;;;;;5072237;28;20705;-66
2021/10/25 03:42:40;;;;;;;7.93;5.30;;;8.80;96.30;;;;;;5079628;28;20569;-65
2021/10/25 03:45:13;;;;;;;6.03;5.43;;;8.70;96.30;;;;;;5092497;28;20227;-65
2021/10/25 03:47:44;;;;;;;5.10;4.57;;;8.80;96.50;;;;;;5092809;28;20222;-65
2021/10/25 03:50:14;;;;;;;7.90;5.53;;;8.80;96.40;;;;;;5092466;28;20567;-65
2021/10/25 03:52:48;;;;;;;9.05;5.07;;;8.70;96.30;;;;;;5092729;28;20277;-66
2021/10/25 03:55:20;;;;;;;6.20;4.55;;;8.70;96.30;;;;;;5092283;28;20548;-66
2021/10/25 04:01:16;;;;;;;9.07;5.43;;;8.70;96.30;;;;;;5120532;27;20589;-65
2021/10/25 04:26:03;;;;;;;8.10;5.35;;;8.60;96.50;;;;;;5086710;28;20230;-65
2021/10/25 04:28:32;;;;;;;9.18;6.70;;;8.60;96.50;;;;;;5109565;28;20212;-65
2021/10/25 04:31:00;;;;;;;5.90;5.30;;;8.60;96.60;;;;;;5109849;28;20254;-65
2021/10/25 04:33:29;;;;;;;6.07;5.47;;;8.60;96.60;;;;;;5109382;28;20243;-65
2021/10/25 04:35:56;;;;;;;8.52;5.13;;;8.60;96.70;;;;;;5109698;28;20224;-65
2021/10/25 04:38:23;;;;;;;7.57;5.88;;;8.60;96.70;;;;;;5109260;28;20230;-65
2021/10/25 04:40:50;;;;;;;10.95;6.30;;;8.60;96.70;;;;;;5109488;28;20223;-65
2021/10/25 04:43:19;;;;;;;5.85;5.32;;;8.60;96.70;;;;;;5109243;28;20565;-65
2021/10/25 04:45:47;;;;;;;5.88;5.28;;;8.50;96.60;;;;;;5109862;28;20249;-65
2021/10/25 04:48:15;;;;;;;6.78;5.57;;;8.50;96.70;;;;;;5109245;28;20663;-65
2021/10/25 04:50:43;;;;;;;8.00;5.72;;;8.60;96.80;;;;;;5109545;28;20227;-65
2021/10/25 04:53:10;;;;;;;7.85;5.57;;;8.60;96.80;;;;;;5109162;28;20231;-65
2021/10/25 04:55:37;;;;;;;9.77;6.55;;;8.60;96.80;;;;;;5109496;28;20220;-65
2021/10/25 04:58:04;;;;;;;7.97;5.53;;;8.60;96.70;;;;;;5109594;28;20443;-65
2021/10/25 05:00:31;;;;;;;7.35;5.88;;;8.60;96.60;;;;;;5120135;27;20298;-65
2021/10/25 05:02:59;;;;;;;7.57;5.43;;;8.60;96.50;;;;;;5114876;27;20314;-65
2021/10/25 05:05:26;;;;;;;6.47;5.28;;;8.50;96.60;;;;;;5108789;28;20216;-66
2021/10/25 05:07:55;;;;;;;8.35;6.03;;;8.50;96.70;;;;;;5109425;28;20730;-66
2021/10/25 05:10:22;;;;;;;11.00;5.65;;;8.50;96.60;;;;;;5105999;28;20230;-65
2021/10/25 05:12:49;;;;;;;5.40;4.93;;;8.50;96.70;;;;;;5095315;28;20679;-65
2021/10/25 05:15:16;;;;;;;8.73;7.85;;;8.50;96.80;;;;;;5095058;28;20226;-66
2021/10/25 05:17:43;;;;;;;6.65;5.20;;;8.50;96.70;;;;;;5095407;28;20228;-66
2021/10/25 05:20:11;;;;;;;6.78;5.82;;;8.50;96.80;;;;;;5094785;28;20225;-66
2021/10/25 05:22:38;;;;;;;6.70;5.97;;;8.50;96.80;;;;;;5095476;28;20223;-66
2021/10/25 05:25:10;;;;;;;6.38;5.78;;;8.50;96.80;;;;;;5095272;28;20232;-66
2021/10/25 05:27:37;;;;;;;9.10;5.30;;;8.50;96.80;;;;;;5095035;28;20971;-66
2021/10/25 05:30:05;;;;;;;7.70;5.50;;;8.40;96.80;;;;;;5095154;28;20231;-65
2021/10/25 05:32:32;;;;;;;5.78;5.20;;;8.40;96.80;;;;;;5094902;28;20228;-67
2021/10/25 05:34:59;;;;;;;17.52;10.38;;;8.50;96.90;;;;;;5095242;28;20218;-66
2021/10/25 05:37:26;;;;;;;11.27;9.00;;;8.40;96.80;;;;;;5094891;28;20223;-66
2021/10/25 05:39:55;;;;;;;12.20;10.65;;;8.50;96.90;;;;;;5094783;28;20239;-65
2021/10/25 05:42:25;;;;;;;9.40;6.15;;;8.50;96.90;;;;;;5094601;28;20216;-65
2021/10/25 05:44:52;;;;;;;10.18;6.72;;;8.50;96.90;;;;;;5095018;28;20235;-66
2021/10/25 05:47:19;;;;;;;7.22;6.10;;;8.50;96.90;;;;;;5094659;28;20611;-66
2021/10/25 05:49:46;;;;;;;7.05;6.35;;;8.50;96.80;;;;;;5094837;28;20232;-66
2021/10/25 05:52:13;;;;;;;7.30;6.38;;;8.40;96.80;;;;;;5095066;28;20229;-66
2021/10/25 05:54:41;;;;;;;7.68;6.05;;;8.50;96.80;;;;;;5094442;28;20223;-65
2021/10/25 05:57:08;;;;;;;6.40;5.80;;;8.50;96.80;;;;;;5094668;28;20682;-65
2021/10/25 05:59:37;;;;;;;8.25;5.90;;;8.50;96.90;;;;;;5097515;28;20224;-66
2021/10/25 06:02:12;;;;;;;7.45;5.32;;;8.50;96.80;;;;;;5107659;28;20678;-66
2021/10/25 06:04:39;;;;;;;8.52;6.15;;;8.50;96.80;;;;;;5094291;28;20233;-65
2021/10/25 06:07:06;;;;;;;12.27;8.20;;;8.50;96.80;;;;;;5094570;28;20224;-66
2021/10/25 06:09:35;;;;;;;7.85;6.15;;;8.50;96.80;;;;;;5094029;28;20228;-65
2021/10/25 06:12:04;;;;;;;9.95;6.57;;;8.50;96.90;;;;;;5094549;28;20562;-65
2021/10/25 06:14:36;;;;;;;8.18;6.78;;;8.50;96.90;;;;;;5094210;28;20682;-65
2021/10/25 06:17:20;;;;;;;12.30;8.88;;;8.50;96.90;;;;;;5094501;28;20237;-65
2021/10/25 06:19:47;;;;;;;11.48;8.13;;;8.50;96.80;;;;;;5093948;28;20224;-65
2021/10/25 06:22:15;;;;;;;11.27;6.82;;;8.50;96.90;;;;;;5093384;28;20217;-65
2021/10/25 06:24:42;;;;;;;8.90;7.03;;;8.50;96.90;;;;;;5093684;28;20232;-65
2021/10/25 06:27:09;;;;;;;8.40;5.95;;;8.60;96.90;;;;;;5094138;28;20580;-66
2021/10/25 06:29:36;;;;;;;6.75;5.75;;;8.50;96.80;;;;;;5093633;28;20589;-66
2021/10/25 06:32:05;;;;;;;7.80;6.72;;;8.50;96.80;;;;;;5094287;28;20239;-66
2021/10/25 06:34:37;;;;;;;7.18;5.72;;;8.50;96.80;;;;;;5093700;28;20220;-66
2021/10/25 06:37:05;;;;;;;11.07;6.65;;;8.50;96.80;;;;;;5094100;28;20244;-66
2021/10/25 06:39:37;;;;;;;7.35;6.47;;;8.50;96.80;;;;;;5093314;28;20663;-66
2021/10/25 06:42:04;;;;;;;7.35;6.68;;;8.50;96.80;;;;;;5093860;28;20219;-67
2021/10/25 06:44:32;;;;;;;9.60;8.60;;;8.50;96.90;;;;;;5093492;28;20216;-67
2021/10/25 06:46:59;;;;;;;11.27;7.45;;;8.50;96.90;;;;;;5093867;28;20225;-66
2021/10/25 06:49:28;;;;;;;9.15;7.18;;;8.50;96.90;;;;;;5093467;28;20238;-66
2021/10/25 06:51:56;;;;;;;7.03;6.25;;;8.60;96.90;;;;;;5093643;28;20671;-65
2021/10/25 06:54:23;;;;;;;7.55;6.32;;;8.60;97.00;;;;;;5093756;28;20224;-66
2021/10/25 06:56:50;;;;;;;7.50;6.38;;;8.60;97.00;;;;;;5093508;28;20248;-66
2021/10/25 06:59:17;;;;;;;10.32;7.07;;;8.60;97.00;;;;;;5094109;28;20690;-65
2021/10/25 07:01:44;;;;;;;6.90;5.35;;;8.60;97.00;;;;;;5109829;27;20244;-67
2021/10/25 07:04:11;;;;;;;9.75;6.57;;;8.70;96.90;;;;;;5093647;28;20228;-66
2021/10/25 07:06:39;;;;;;;8.90;5.75;;;8.70;96.90;;;;;;5092932;28;20231;-66
2021/10/25 07:09:06;;;;;;;10.43;6.28;;;8.70;96.90;;;;;;5093298;28;20239;-66
2021/10/25 07:11:34;;;;;;;6.30;4.95;;;8.70;96.90;;;;;;5093092;28;20225;-66
2021/10/25 07:14:01;;;;;;;7.28;5.65;;;8.70;96.80;;;;;;5093318;28;20256;-66
2021/10/25 07:16:34;;;;;;;8.35;7.03;;;8.70;96.70;;;;;;5093133;28;20226;-66
2021/10/25 07:19:15;;;;;;;7.00;6.07;;;8.70;96.80;;;;;;5093035;28;20251;-66
2021/10/25 07:22:03;;;;;;;11.95;6.45;;;8.70;96.70;;;;;;5092699;28;20230;-66
2021/10/25 07:27:39;;;;;;;8.43;5.97;;;8.70;96.90;;;;;;5093204;28;20321;-66
2021/10/25 08:00:55;;;;;;;13.20;8.55;;;9.20;96.90;;;;;;5104567;28;20713;-65
2021/10/25 08:06:21;;;;;;;6.20;5.60;;;9.40;96.90;;;;;;5092656;28;20230;-67
2021/10/25 08:08:56;;;;;;;5.90;5.40;;;9.40;96.80;;;;;;5092092;28;20226;-65
2021/10/25 08:11:33;;;;;;;6.70;5.03;;;9.50;96.70;;;;;;5092230;28;20221;-66
2021/10/25 08:14:04;;;;;;;6.88;4.93;;;9.50;96.80;;;;;;5092685;28;20691;-65
2021/10/25 08:16:42;;;;;;;9.10;6.97;;;9.60;96.80;;;;;;5092126;28;20302;-65
2021/10/25 08:19:23;;;;;;;11.57;7.25;;;9.70;96.80;;;;;;5092533;28;20296;-66
2021/10/25 08:21:51;;;;;;;11.02;6.38;;;9.80;96.60;;;;;;5092440;28;20715;-66
2021/10/25 08:24:18;;;;;;;12.70;6.63;;;9.90;96.60;;;;;;5092549;28;20284;-65
2021/10/25 08:26:46;;;;;;;10.32;5.80;;;9.90;96.60;;;;;;5092108;28;20673;-66
2021/10/25 08:29:15;;;;;;;6.85;6.15;;;9.90;96.20;;;;;;5092504;28;20227;-66
2021/10/25 08:31:44;;;;;;;5.45;4.95;;;10.00;95.70;;;;;;5092003;28;20234;-67
2021/10/25 08:39:52;;;;;;;9.93;7.50;;;10.10;95.40;;;;;;5067279;28;20239;-66
2021/10/25 08:42:23;;;;;;;9.75;8.25;;;10.20;95.30;;;;;;5092389;28;20237;-66
2021/10/25 08:44:56;;;;;;;14.18;7.53;;;10.20;95.10;;;;;;5091917;28;20566;-66
2021/10/25 08:47:25;;;;;;;9.40;7.95;;;10.30;95.30;;;;;;5095621;28;20218;-66
2021/10/25 08:49:54;;;;;;;16.38;10.38;;;10.30;95.30;;;;;;5095798;28;20687;-66
2021/10/25 08:52:23;;;;;;;16.70;9.63;;;10.40;95.40;;;;;;5096034;28;20233;-66
2021/10/25 08:54:51;;;;;;;13.18;8.80;;;10.40;95.20;;;;;;5095589;28;20227;-65
2021/10/25 08:57:21;;;;;;;11.05;9.05;;;10.40;95.30;;;;;;5096081;28;20219;-65
2021/10/25 09:00:01;;;;;;;18.98;17.15;;;10.50;95.40;;;;;;5100100;28;20765;-66
2021/10/25 09:02:30;;;;;;;21.65;16.40;;;10.50;95.40;;;;;;5106497;28;20219;-66
2021/10/25 09:04:59;;;;;;;13.02;11.55;;;10.60;95.50;;;;;;5095364;28;20219;-65
2021/10/25 09:07:26;;;;;;;13.50;12.05;;;10.70;95.40;;;;;;5095865;28;20220;-67
2021/10/25 09:09:53;;;;;;;11.00;7.30;;;10.70;95.10;;;;;;5095221;28;20242;-66
2021/10/25 09:12:23;;;;;;;16.90;10.85;;;10.70;94.90;;;;;;5095645;28;20230;-66
2021/10/25 09:14:57;;;;;;;12.20;10.45;;;10.80;95.00;;;;;;5095339;28;20243;-65
2021/10/25 09:17:24;;;;;;;12.35;11.02;;;10.90;95.10;;;;;;5095481;28;20218;-66
2021/10/25 09:19:51;;;;;;;10.82;9.75;;;10.90;95.00;;;;;;5095108;28;20254;-66
2021/10/25 09:22:20;;;;;;;11.63;10.15;;;11.00;95.10;;;;;;5095685;28;20311;-66
2021/10/25 09:24:52;;;;;;;9.55;8.65;;;11.10;95.20;;;;;;5095041;28;20224;-66
2021/10/25 09:27:28;;;;;;;8.77;7.97;;;11.20;95.10;;;;;;5095279;28;20226;-66
2021/10/25 09:29:59;;;;;;;8.02;7.22;;;11.30;95.10;;;;;;5095023;28;20231;-65
2021/10/25 09:32:32;;;;;;;8.98;6.05;;;11.40;95.10;;;;;;5095449;28;20230;-65
2021/10/25 09:35:01;;;;;;;7.22;5.50;;;11.40;95.00;;;;;;5094893;28;20341;-64
2021/10/25 09:37:33;;;;;;;9.70;8.80;;;11.50;95.00;;;;;;5095058;28;20311;-64
2021/10/25 09:40:05;;;;;;;11.88;10.13;;;11.60;95.00;;;;;;5094695;28;20660;-64
2021/10/25 09:50:54;;;;;;;6.78;4.72;;;11.80;94.60;;;;;;5074471;28;20231;-65
2021/10/25 09:53:30;;;;;;;7.03;5.55;;;11.90;94.70;;;;;;5074469;28;20323;-65
2021/10/25 09:55:58;;;;;;;9.73;5.93;;;11.90;94.70;;;;;;5074466;28;20251;-65
2021/10/25 09:58:33;;;;;;;5.93;5.32;;;12.00;94.70;;;;;;5074558;28;20700;-65
2021/10/25 10:01:00;;;;;;;7.60;5.35;;;12.10;94.60;;;;;;5104414;27;21034;-65
2021/10/25 10:03:29;;;;;;;7.32;5.43;;;12.10;94.50;;;;;;5096814;28;20720;-65
2021/10/25 10:05:59;;;;;;;6.90;5.75;;;12.20;94.60;;;;;;5094481;28;20242;-66
2021/10/25 10:08:27;;;;;;;6.15;5.15;;;12.30;94.40;;;;;;5094417;28;20227;-65
2021/10/25 10:10:55;;;;;;;5.20;4.47;;;12.30;94.20;;;;;;5094187;28;20543;-65
2021/10/25 10:13:23;;;;;;;11.77;6.20;;;12.30;94.60;;;;;;5094432;28;20215;-66
2021/10/25 10:15:54;;;;;;;8.73;6.80;;;12.40;94.20;;;;;;5093969;28;20215;-66
2021/10/25 10:18:23;;;;;;;7.13;6.18;;;12.50;94.30;;;;;;5094508;28;20238;-66
2021/10/25 10:20:57;;;;;;;8.88;6.38;;;12.60;94.40;;;;;;5093815;28;20624;-66
2021/10/25 10:23:25;;;;;;;12.23;7.45;;;12.60;94.50;;;;;;5094201;28;20272;-66
2021/10/25 10:25:53;;;;;;;7.68;6.53;;;12.70;94.50;;;;;;5093787;28;20673;-66
2021/10/25 10:28:32;;;;;;;7.13;5.50;;;12.70;94.40;;;;;;5094382;28;20220;-66
2021/10/25 10:31:04;;;;;;;6.97;5.30;;;12.80;94.20;;;;;;5093829;28;20246;-66
2021/10/25 10:33:35;;;;;;;9.45;7.53;;;12.80;94.00;;;;;;5094232;28;20223;-66
2021/10/25 10:36:14;;;;;;;10.45;8.45;;;12.90;94.00;;;;;;5093749;28;20250;-66
2021/10/25 10:38:46;;;;;;;16.25;13.40;;;12.90;93.90;;;;;;5093443;28;20218;-66
2021/10/25 10:41:14;;;;;;;13.57;11.77;;;12.90;93.40;;;;;;5094171;28;20231;-66
2021/10/25 10:43:41;;;;;;;11.98;10.63;;;13.00;93.40;;;;;;5093558;28;20216;-66
2021/10/25 10:46:15;;;;;;;9.95;7.90;;;13.00;93.40;;;;;;5089497;28;20616;-67
2021/10/25 10:48:45;;;;;;;9.68;8.00;;;13.00;93.40;;;;;;5092984;28;20234;-67
2021/10/25 10:51:15;;;;;;;9.80;8.27;;;13.20;93.40;;;;;;5092585;28;20219;-66
2021/10/25 10:53:52;;;;;;;7.55;6.72;;;13.20;93.40;;;;;;5093060;28;20704;-67
2021/10/25 10:56:24;;;;;;;6.75;6.10;;;13.20;93.40;;;;;;5092328;28;20223;-66
2021/10/25 10:58:54;;;;;;;7.45;6.75;;;13.30;93.40;;;;;;5092515;28;20231;-66
2021/10/25 11:01:22;;;;;;;8.25;4.65;;;13.30;93.40;;;;;;5092880;28;20568;-66
2021/10/25 11:03:58;;;;;;;6.32;5.18;;;13.30;93.20;;;;;;5103916;28;20220;-66
2021/10/25 11:06:31;;;;;;;8.80;6.22;;;13.40;93.20;;;;;;5089011;28;20238;-65
2021/10/25 11:08:58;;;;;;;11.53;7.23;;;13.40;93.30;;;;;;5092261;28;20238;-66
2021/10/25 11:11:25;;;;;;;8.77;6.40;;;13.40;93.30;;;;;;5093312;28;20484;-66
2021/10/25 11:13:56;;;;;;;11.52;8.48;;;13.40;93.00;;;;;;5090214;28;20223;-66
2021/10/25 11:16:34;;;;;;;9.55;8.00;;;13.30;92.90;;;;;;5091626;28;20649;-66
2021/10/25 11:19:03;;;;;;;7.55;6.22;;;13.30;92.90;;;;;;5090903;28;20325;-66
2021/10/25 11:21:33;;;;;;;7.88;5.35;;;13.30;93.00;;;;;;5091619;28;20688;-66
2021/10/25 11:24:03;;;;;;;9.07;8.20;;;13.40;93.10;;;;;;5091461;28;20926;-65
2021/10/25 11:26:32;;;;;;;8.32;7.25;;;13.30;93.10;;;;;;5091982;28;20239;-66
2021/10/25 11:29:07;;;;;;;10.15;6.40;;;13.40;93.10;;;;;;5092023;28;20285;-65
2021/10/25 11:31:38;;;;;;;7.60;6.63;;;13.40;93.20;;;;;;5093190;28;20219;-65
2021/10/25 11:34:11;;;;;;;8.20;6.60;;;13.50;93.30;;;;;;5092688;28;20458;-65
2021/10/25 11:36:51;;;;;;;8.70;7.80;;;13.50;93.30;;;;;;5091801;28;20253;-65
2021/10/25 11:39:25;;;;;;;7.88;6.45;;;13.50;93.10;;;;;;5091373;28;20359;-65
2021/10/25 11:41:52;;;;;;;6.88;6.28;;;13.50;93.00;;;;;;5090779;28;20215;-65
2021/10/25 11:44:19;;;;;;;8.43;6.18;;;13.50;93.10;;;;;;5091160;28;20619;-65
2021/10/25 11:46:47;;;;;;;11.30;8.50;;;13.60;93.10;;;;;;5090848;28;20233;-66
2021/10/25 11:49:21;;;;;;;8.45;5.82;;;13.60;93.10;;;;;;5091145;28;20227;-66
2021/10/25 11:51:50;;;;;;;9.27;6.50;;;13.70;93.20;;;;;;5091458;28;20230;-65
2021/10/25 11:54:17;;;;;;;16.23;10.85;;;13.70;93.30;;;;;;5092179;28;20211;-65
2021/10/25 11:56:49;;;;;;;11.43;8.38;;;13.70;93.20;;;;;;5092292;28;20254;-65
2021/10/25 11:59:17;;;;;;;11.00;8.00;;;13.60;92.80;;;;;;5093197;28;20246;-67
2021/10/25 12:01:45;;;;;;;9.32;8.43;;;13.60;92.90;;;;;;5109110;28;20461;-65
2021/10/25 12:04:14;;;;;;;9.35;8.00;;;13.70;93.00;;;;;;5092780;28;20223;-65
2021/10/25 12:06:42;;;;;;;11.68;9.40;;;13.60;92.90;;;;;;5092271;28;20693;-66
2021/10/25 12:09:10;;;;;;;7.95;7.00;;;13.60;93.40;;;;;;5092584;28;20542;-65
2021/10/25 12:11:50;;;;;;;13.25;8.65;;;13.60;93.10;;;;;;5092373;28;20211;-66
2021/10/25 12:14:23;;;;;;;16.42;12.23;;;13.50;93.30;;;;;;5092616;28;20215;-66
2021/10/25 12:16:51;;;;;;;17.40;14.43;;;13.50;93.30;;;;;;5092032;28;20231;-66
2021/10/25 12:19:20;;;;;;;10.32;8.38;;;13.60;93.50;;;;;;5092542;28;20223;-66
2021/10/25 12:21:48;;;;;;;9.43;7.43;;;13.60;93.40;;;;;;5094565;28;20234;-65
2021/10/25 12:24:15;;;;;;;11.05;7.72;;;13.70;93.50;;;;;;5096750;28;20680;-66
2021/10/25 12:26:45;;;;;;;7.80;6.97;;;13.60;93.30;;;;;;5096260;28;20223;-65
2021/10/25 12:29:16;;;;;;;8.77;7.87;;;13.70;93.40;;;;;;5096409;28;20306;-65
2021/10/25 12:31:44;;;;;;;13.47;8.13;;;13.70;93.50;;;;;;5096020;28;20469;-65
2021/10/25 12:34:11;;;;;;;5.83;4.90;;;13.70;93.50;;;;;;5096480;28;20860;-65
2021/10/25 12:36:44;;;;;;;12.75;6.68;;;13.80;93.60;;;;;;5096191;28;20469;-65
2021/10/25 12:39:13;;;;;;;7.80;6.10;;;13.90;93.60;;;;;;5096057;28;20554;-66
2021/10/25 12:41:48;;;;;;;9.07;7.30;;;13.90;93.50;;;;;;5095785;28;20565;-66
2021/10/25 12:44:25;;;;;;;13.38;9.07;;;14.00;93.60;;;;;;5087183;28;20230;-66
2021/10/25 12:46:54;;;;;;;7.25;6.47;;;13.90;93.50;;;;;;5095899;28;20230;-66
2021/10/25 12:49:22;;;;;;;10.93;6.05;;;14.00;93.60;;;;;;5095982;28;20704;-65
2021/10/25 12:51:51;;;;;;;7.40;6.33;;;14.00;93.70;;;;;;5095767;28;20251;-65
2021/10/25 12:54:18;;;;;;;7.53;6.20;;;14.00;93.60;;;;;;5096285;28;20838;-65
2021/10/25 12:56:46;;;;;;;7.47;6.30;;;14.00;93.50;;;;;;5095638;28;20470;-66
2021/10/25 12:59:15;;;;;;;8.35;5.70;;;14.10;93.50;;;;;;5095723;28;20497;-66
2021/10/25 13:01:52;;;;;;;6.78;5.43;;;14.10;93.60;;;;;;5112540;28;20219;-65
2021/10/25 13:04:20;;;;;;;6.60;5.95;;;14.10;93.50;;;;;;5095875;28;20239;-66
2021/10/25 13:06:48;;;;;;;7.30;5.53;;;14.10;93.60;;;;;;5095480;28;20697;-66
2021/10/25 13:09:16;;;;;;;6.47;5.67;;;14.10;93.70;;;;;;5095796;28;20473;-65
2021/10/25 13:11:45;;;;;;;7.80;6.10;;;14.20;93.80;;;;;;5095337;28;20465;-66
2021/10/25 13:14:13;;;;;;;14.87;10.17;;;14.20;93.80;;;;;;5095610;28;20522;-65
2021/10/25 13:16:44;;;;;;;8.93;8.03;;;14.20;93.90;;;;;;5095170;28;20982;-67
2021/10/25 13:19:12;;;;;;;11.40;7.93;;;14.20;93.90;;;;;;5095472;28;20469;-65
2021/10/25 13:21:39;;;;;;;10.20;6.90;;;14.10;93.70;;;;;;5095089;28;20504;-65
2021/10/25 13:24:07;;;;;;;10.10;6.63;;;14.10;93.60;;;;;;5095445;28;20981;-65
2021/10/25 13:26:37;;;;;;;8.57;7.40;;;14.00;93.60;;;;;;5095531;28;20473;-66
2021/10/25 13:29:05;;;;;;;7.93;6.30;;;14.00;93.70;;;;;;5095188;28;20471;-66
2021/10/25 13:31:32;;;;;;;8.33;7.00;;;14.00;93.80;;;;;;5095050;28;20458;-66
2021/10/25 13:34:00;;;;;;;8.30;7.13;;;14.00;93.90;;;;;;5094815;28;20481;-66
2021/10/25 13:36:27;;;;;;;7.87;6.50;;;13.90;93.90;;;;;;5095362;28;20527;-66
2021/10/25 13:38:54;;;;;;;7.57;6.30;;;14.00;94.00;;;;;;5094637;28;20476;-66
2021/10/25 13:41:21;;;;;;;9.60;8.50;;;14.00;94.00;;;;;;5094999;28;20473;-66
2021/10/25 13:43:49;;;;;;;8.47;7.53;;;14.10;94.20;;;;;;5094573;28;20516;-66
2021/10/25 13:46:16;;;;;;;9.50;8.50;;;14.00;94.20;;;;;;5095039;28;20536;-66
2021/10/25 13:48:43;;;;;;;14.93;11.93;;;14.10;94.30;;;;;;5094626;28;20461;-66
2021/10/25 13:51:11;;;;;;;11.50;10.40;;;14.10;94.20;;;;;;5094950;28;20468;-66
2021/10/25 13:53:38;;;;;;;8.90;8.00;;;14.10;94.20;;;;;;5094906;28;20576;-66
2021/10/25 13:56:07;;;;;;;12.53;8.13;;;14.00;94.00;;;;;;5094515;28;20468;-66
2021/10/25 13:58:34;;;;;;;7.75;6.95;;;14.00;94.10;;;;;;5094503;28;20555;-67
2021/10/25 14:01:03;;;;;;;6.72;6.03;;;14.00;94.20;;;;;;5109714;28;20672;-66
2021/10/25 14:03:31;;;;;;;7.90;7.13;;;14.00;94.20;;;;;;5096360;28;20238;-65
2021/10/25 14:06:03;;;;;;;7.80;5.87;;;14.00;94.30;;;;;;5094218;28;20795;-65
2021/10/25 14:08:30;;;;;;;7.37;5.63;;;14.00;94.30;;;;;;5094387;28;20465;-66
2021/10/25 14:10:57;;;;;;;9.60;6.33;;;14.10;94.50;;;;;;5094104;28;20473;-66
2021/10/25 14:13:29;;;;;;;7.77;6.60;;;14.10;94.70;;;;;;5094476;28;20540;-65